Time;durP1;ratioP1;P1;durP2;ratioP2;P2;SDS_P1;SDS_P2;PMS_P1;PMS_P2;Temp;Humidity;BMP_temperature;BMP_pressure;BME280_temperature;BME280_humidity;BME280_pressure;Samples;Min_cycle;Max_cycle;Signal;HPM_P1;HPM_P2
2021/06/10 00:00:36;;;;;;;10.47;9.37;;;;;;;;;;5050146;28;20452;-87
2021/06/10 00:03:05;;;;;;;9.63;8.73;;;13.70;99.90;;;;;;5055399;28;20483;-87
2021/06/10 00:05:32;;;;;;;9.90;9.00;;;13.90;99.90;;;;;;5052134;28;20503;-87
2021/06/10 00:07:59;;;;;;;11.27;10.03;;;;;;;;;;5050405;28;20439;-87
2021/06/10 00:10:28;;;;;;;9.63;8.60;;;13.80;99.90;;;;;;5051108;28;20447;-89
2021/06/10 00:12:55;;;;;;;10.00;9.00;;;;;;;;;;5053460;28;20478;-89
2021/06/10 00:15:24;;;;;;;10.43;9.37;;;13.80;99.90;;;;;;5052757;28;20454;-87
2021/06/10 00:17:52;;;;;;;11.30;9.00;;;13.80;99.90;;;;;;5052547;28;20452;-87
2021/06/10 00:20:22;;;;;;;9.53;8.50;;;13.70;99.90;;;;;;5051888;28;20440;-89
2021/06/10 00:22:49;;;;;;;11.93;10.17;;;13.80;99.90;;;;;;5050451;28;20550;-88
2021/06/10 00:25:16;;;;;;;11.50;10.40;;;;;;;;;;5049727;28;20447;-88
2021/06/10 00:27:43;;;;;;;13.73;11.00;;;13.90;99.90;;;;;;5045082;28;20436;-87
2021/06/10 00:30:15;;;;;;;11.83;10.63;;;14.50;99.90;;;;;;5038477;28;20459;-88
2021/06/10 00:32:42;;;;;;;10.97;9.87;;;;;;;;;;5035630;28;20455;-87
2021/06/10 00:35:09;;;;;;;11.60;10.33;;;13.80;99.90;;;;;;5036006;28;21220;-87
2021/06/10 00:37:37;;;;;;;19.50;13.23;;;13.80;99.90;;;;;;5034550;28;20526;-89
2021/06/10 00:40:07;;;;;;;11.77;10.73;;;13.60;99.90;;;;;;5035812;28;20456;-87
2021/06/10 00:42:33;;;;;;;11.33;10.20;;;;;;;;;;5030189;28;20443;-88
2021/06/10 00:45:00;;;;;;;12.03;10.63;;;13.90;99.90;;;;;;5038022;28;20455;-89
2021/06/10 00:47:27;;;;;;;11.63;10.17;;;13.80;99.90;;;;;;5039431;28;20447;-87
2021/06/10 00:49:53;;;;;;;13.10;10.20;;;;;;;;;;5039962;28;20452;-89
2021/06/10 00:52:20;;;;;;;12.00;10.90;;;;;;;;;;5038323;28;20451;-89
2021/06/10 00:54:48;;;;;;;10.90;9.80;;;13.70;99.90;;;;;;5047233;28;20490;-89
2021/06/10 00:57:14;;;;;;;11.33;10.23;;;;;;;;;;5040841;28;20935;-88
2021/06/10 00:59:41;;;;;;;11.43;10.33;;;13.70;99.90;;;;;;5044649;28;20453;-88
2021/06/10 01:02:07;;;;;;;11.57;10.47;;;;;;;;;;5053180;28;20494;-89
2021/06/10 01:04:34;;;;;;;11.73;10.63;;;;;;;;;;5035930;28;20816;-89
2021/06/10 01:07:07;;;;;;;14.43;10.40;;;13.50;99.90;;;;;;5038903;28;20458;-90
2021/06/10 01:09:42;;;;;;;11.20;9.90;;;13.40;99.90;;;;;;5035920;28;20463;-89
2021/06/10 01:12:14;;;;;;;11.07;9.87;;;13.20;99.90;;;;;;5037682;28;20470;-89
2021/06/10 01:14:43;;;;;;;11.43;10.43;;;13.60;99.90;;;;;;5034154;28;20501;-89
2021/06/10 01:17:11;;;;;;;11.33;10.30;;;13.50;99.90;;;;;;5037887;28;20450;-88
2021/06/10 01:19:58;;;;;;;11.00;9.90;;;13.20;99.90;;;;;;5037595;28;20510;-89
2021/06/10 01:22:40;;;;;;;10.50;9.50;;;13.50;99.90;;;;;;5036593;28;21005;-88
2021/06/10 01:25:15;;;;;;;10.60;9.60;;;13.40;99.90;;;;;;5034244;28;20477;-87
2021/06/10 01:27:48;;;;;;;11.50;10.03;;;13.40;99.90;;;;;;5033969;28;20443;-89
2021/06/10 01:30:18;;;;;;;10.60;9.60;;;13.30;99.90;;;;;;5034149;28;20847;-88
2021/06/10 01:32:47;;;;;;;10.43;9.43;;;13.30;99.90;;;;;;5033952;28;20844;-90
2021/06/10 01:35:15;;;;;;;10.27;9.30;;;13.40;99.90;;;;;;5036596;28;20487;-89
2021/06/10 01:37:44;;;;;;;10.70;9.70;;;13.30;99.90;;;;;;5033057;28;20973;-87
2021/06/10 01:40:12;;;;;;;11.03;9.57;;;13.40;99.90;;;;;;5033635;28;20439;-88
2021/06/10 01:42:39;;;;;;;10.60;9.57;;;;;;;;;;5030462;28;20448;-88
2021/06/10 01:45:11;;;;;;;9.90;8.50;;;13.10;99.90;;;;;;5036353;28;20452;-88
2021/06/10 01:47:38;;;;;;;10.30;9.17;;;13.30;99.90;;;;;;5036563;28;20452;-89
2021/06/10 01:50:07;;;;;;;13.63;9.93;;;12.60;99.90;;;;;;5036635;28;20443;-89
2021/06/10 01:52:35;;;;;;;10.30;9.37;;;13.20;99.90;;;;;;5035210;28;20510;-88
2021/06/10 01:55:02;;;;;;;8.90;8.10;;;12.90;99.90;;;;;;5035694;28;20478;-89
2021/06/10 01:57:30;;;;;;;10.33;9.53;;;13.10;99.90;;;;;;5036328;28;20945;-89
2021/06/10 01:59:57;;;;;;;9.70;8.80;;;;;;;;;;5035993;28;20493;-88
2021/06/10 02:02:26;;;;;;;10.20;9.20;;;13.10;99.90;;;;;;5036165;28;20958;-88
2021/06/10 02:04:53;;;;;;;10.93;9.77;;;12.50;99.90;;;;;;5033004;28;20534;-89
2021/06/10 02:07:19;;;;;;;10.60;9.60;;;13.00;99.90;;;;;;5035072;28;20455;-89
2021/06/10 02:09:47;;;;;;;10.30;8.80;;;13.00;99.90;;;;;;5033038;28;20459;-89
2021/06/10 02:12:13;;;;;;;10.90;9.50;;;12.90;99.90;;;;;;5033011;28;20464;-89
2021/06/10 02:14:41;;;;;;;12.93;10.00;;;13.00;99.90;;;;;;5035352;28;20447;-88
2021/06/10 02:17:08;;;;;;;10.20;8.73;;;12.30;99.90;;;;;;5032701;28;20494;-88
2021/06/10 02:19:36;;;;;;;12.33;9.30;;;12.40;99.90;;;;;;5035476;28;20454;-89
2021/06/10 02:22:03;;;;;;;10.70;9.40;;;12.90;99.90;;;;;;5034573;28;20459;-88
2021/06/10 02:24:29;;;;;;;10.23;9.23;;;12.90;99.90;;;;;;5029978;28;20494;-89
2021/06/10 02:26:56;;;;;;;10.67;9.67;;;12.90;99.90;;;;;;5035224;28;20451;-89
2021/06/10 02:29:22;;;;;;;11.27;9.90;;;12.60;99.90;;;;;;5035706;28;20463;-88
2021/06/10 02:31:48;;;;;;;10.63;9.73;;;12.80;99.90;;;;;;5029634;28;21009;-89
2021/06/10 02:34:15;;;;;;;9.27;8.47;;;12.70;99.90;;;;;;5030620;28;20471;-89
2021/06/10 02:36:46;;;;;;;10.57;9.50;;;12.80;99.90;;;;;;5034457;28;20447;-89
2021/06/10 02:39:17;;;;;;;9.47;8.53;;;12.80;99.90;;;;;;5035069;28;20934;-88
2021/06/10 02:41:47;;;;;;;10.90;9.87;;;12.70;99.90;;;;;;5035281;28;20530;-88
2021/06/10 02:44:14;;;;;;;10.40;9.40;;;13.10;99.90;;;;;;5029715;28;21014;-89
2021/06/10 02:46:42;;;;;;;9.97;9.07;;;12.80;99.90;;;;;;5035568;28;20455;-90
2021/06/10 02:49:09;;;;;;;9.60;8.70;;;12.90;99.90;;;;;;5031954;28;20444;-90
2021/06/10 02:51:37;;;;;;;11.10;10.00;;;12.70;99.90;;;;;;5032193;28;20452;-88
2021/06/10 02:54:08;;;;;;;11.47;9.77;;;12.70;99.90;;;;;;5030724;28;20533;-89
2021/06/10 02:56:36;;;;;;;9.97;9.07;;;12.70;99.90;;;;;;5031987;28;20468;-88
2021/06/10 02:59:04;;;;;;;10.50;9.50;;;12.70;99.90;;;;;;5034710;28;20448;-89
2021/06/10 03:01:35;;;;;;;10.27;9.27;;;12.50;99.90;;;;;;5034870;28;20462;-88
2021/06/10 03:04:02;;;;;;;10.33;9.23;;;12.70;99.90;;;;;;5030495;28;20549;-88
2021/06/10 03:06:29;;;;;;;12.23;10.17;;;12.60;99.90;;;;;;5034036;28;20961;-91
2021/06/10 03:08:56;;;;;;;10.93;9.77;;;;;;;;;;5033916;28;20461;-89
2021/06/10 03:11:24;;;;;;;16.73;10.03;;;12.60;99.90;;;;;;5035027;28;20514;-89
2021/06/10 03:13:51;;;;;;;10.07;9.23;;;12.60;99.90;;;;;;5032050;28;20460;-89
2021/06/10 03:16:47;;;;;;;10.03;9.03;;;12.60;99.90;;;;;;5021112;28;20453;-89
2021/06/10 03:19:16;;;;;;;10.53;9.40;;;12.60;99.90;;;;;;5006263;28;20444;-87
2021/06/10 03:21:43;;;;;;;11.80;10.60;;;;;;;;;;5012964;28;20444;-89
2021/06/10 03:24:18;;;;;;;11.60;10.50;;;12.60;99.90;;;;;;5013639;28;21056;-87
2021/06/10 03:26:50;;;;;;;11.57;10.40;;;12.70;99.90;;;;;;5010293;28;20449;-88
2021/06/10 03:29:18;;;;;;;11.57;8.83;;;;;;;;;;5013503;28;20468;-88
2021/06/10 03:31:49;;;;;;;11.40;10.20;;;12.60;99.90;;;;;;5014262;28;20447;-88
2021/06/10 03:34:18;;;;;;;10.97;9.87;;;12.60;99.90;;;;;;5013790;28;20473;-89
2021/06/10 03:36:47;;;;;;;12.87;10.77;;;12.50;99.90;;;;;;5014611;28;20441;-90
2021/06/10 03:39:24;;;;;;;11.10;9.83;;;12.00;99.90;;;;;;5014135;28;20819;-88
2021/06/10 03:42:01;;;;;;;10.70;9.20;;;12.70;99.90;;;;;;5004817;28;20951;-88
2021/06/10 03:44:31;;;;;;;11.50;10.50;;;12.70;99.90;;;;;;5006752;28;20537;-89
2021/06/10 03:47:08;;;;;;;11.17;10.10;;;12.90;99.90;;;;;;5006182;28;20892;-88
2021/06/10 03:49:41;;;;;;;11.23;10.03;;;12.80;99.90;;;;;;5005580;28;20490;-89
2021/06/10 03:52:09;;;;;;;11.50;10.30;;;;;;;;;;5007977;28;20450;-87
2021/06/10 03:54:36;;;;;;;11.80;10.60;;;12.30;99.90;;;;;;5008122;28;20449;-90
2021/06/10 03:57:04;;;;;;;10.30;9.40;;;13.20;99.90;;;;;;5010928;28;20448;-88
2021/06/10 03:59:30;;;;;;;10.60;9.60;;;12.90;99.90;;;;;;5013647;28;20452;-88
2021/06/10 04:01:57;;;;;;;13.00;11.70;;;12.70;99.90;;;;;;5014109;28;20459;-89
2021/06/10 04:04:24;;;;;;;10.23;9.30;;;;;;;;;;5013983;28;20499;-88
2021/06/10 04:06:52;;;;;;;11.77;10.63;;;12.90;99.90;;;;;;5013040;28;20448;-89
2021/06/10 04:09:19;;;;;;;11.40;10.40;;;13.10;99.90;;;;;;5013966;28;20443;-88
2021/06/10 04:11:46;;;;;;;10.60;9.47;;;13.00;99.90;;;;;;5010681;28;20448;-89
2021/06/10 04:14:13;;;;;;;10.73;9.80;;;12.90;99.90;;;;;;5008593;28;20455;-90
2021/06/10 04:16:40;;;;;;;11.90;10.20;;;12.90;99.90;;;;;;5013930;28;20448;-87
2021/06/10 04:19:06;;;;;;;10.63;9.17;;;13.30;99.90;;;;;;5014623;28;20460;-90
2021/06/10 04:21:35;;;;;;;10.97;9.97;;;13.20;99.90;;;;;;5010280;28;20464;-88
2021/06/10 04:24:02;;;;;;;10.87;9.87;;;13.20;99.90;;;;;;5013918;28;20491;-87
2021/06/10 04:26:29;;;;;;;11.93;10.83;;;13.30;99.90;;;;;;5013050;28;20472;-87
2021/06/10 04:28:57;;;;;;;11.10;9.57;;;13.40;99.90;;;;;;5013801;28;20531;-88
2021/06/10 04:31:25;;;;;;;11.30;10.30;;;13.80;99.90;;;;;;5011849;28;20456;-87
2021/06/10 04:33:55;;;;;;;12.23;10.10;;;13.70;99.90;;;;;;5008658;28;20451;-88
2021/06/10 04:36:21;;;;;;;12.07;10.90;;;13.60;99.90;;;;;;5017974;28;20535;-88
2021/06/10 04:38:51;;;;;;;11.63;10.20;;;;;;;;;;5015805;28;20459;-89
2021/06/10 04:41:26;;;;;;;11.10;10.00;;;13.90;99.90;;;;;;5011934;28;20436;-89
2021/06/10 04:43:55;;;;;;;13.93;12.63;;;14.20;99.90;;;;;;5006072;28;20491;-88
2021/06/10 04:46:22;;;;;;;12.57;11.30;;;14.10;99.90;;;;;;5012097;28;20445;-88
2021/06/10 04:48:49;;;;;;;14.13;12.63;;;14.30;99.90;;;;;;5020127;28;20444;-87
2021/06/10 04:51:16;;;;;;;12.73;11.50;;;;;;;;;;5017688;28;20458;-89
2021/06/10 04:53:45;;;;;;;13.40;12.10;;;14.60;99.90;;;;;;5016185;28;20848;-89
2021/06/10 04:56:12;;;;;;;13.57;12.23;;;14.80;99.90;;;;;;5013480;28;20958;-90
2021/06/10 04:58:38;;;;;;;12.87;11.67;;;14.60;99.90;;;;;;5014176;28;20444;-89
2021/06/10 05:01:05;;;;;;;14.63;12.17;;;14.70;99.90;;;;;;5014859;28;20445;-87
2021/06/10 05:03:31;;;;;;;12.47;11.27;;;14.80;99.90;;;;;;5020898;28;20476;-89
2021/06/10 05:06:17;;;;;;;13.30;12.10;;;15.00;99.90;;;;;;5019446;28;20429;-88
2021/06/10 05:08:45;;;;;;;13.17;11.87;;;15.30;99.90;;;;;;5020879;28;20958;-89
2021/06/10 05:11:14;;;;;;;13.73;12.37;;;15.20;99.90;;;;;;5020117;28;20848;-87
2021/06/10 05:13:42;;;;;;;13.77;12.37;;;15.50;99.90;;;;;;5024110;28;20945;-89
2021/06/10 05:16:13;;;;;;;13.03;11.70;;;15.30;99.90;;;;;;5029620;28;20433;-88
2021/06/10 05:18:40;;;;;;;13.13;11.80;;;15.60;99.90;;;;;;4977035;28;20938;-89
2021/06/10 05:21:07;;;;;;;12.00;10.90;;;15.80;99.90;;;;;;4980189;28;20586;-87
2021/06/10 05:23:41;;;;;;;13.03;11.67;;;;;;;;;;4989597;28;20498;-87
2021/06/10 05:26:09;;;;;;;11.83;10.73;;;16.60;99.90;;;;;;4931748;29;20459;-87
2021/06/10 05:28:36;;;;;;;13.57;12.17;;;16.20;99.90;;;;;;4937165;29;20540;-87
2021/06/10 05:31:06;;;;;;;11.97;10.77;;;16.80;99.90;;;;;;4940145;29;20797;-87
2021/06/10 05:33:33;;;;;;;13.00;10.83;;;17.10;99.90;;;;;;4922021;29;20468;-88
2021/06/10 05:35:59;;;;;;;11.13;10.10;;;17.40;99.90;;;;;;4888521;29;21067;-87
2021/06/10 05:38:26;;;;;;;10.97;9.23;;;17.50;99.90;;;;;;4879464;29;20474;-88
2021/06/10 05:40:53;;;;;;;10.70;9.60;;;17.90;99.90;;;;;;4876977;29;20570;-88
2021/06/10 05:43:22;;;;;;;9.50;8.70;;;;;;;;;;4884210;29;20472;-92
2021/06/10 05:45:49;;;;;;;9.80;8.73;;;;;;;;;;4916641;29;21037;-92
2021/06/10 05:48:15;;;;;;;7.73;7.13;;;19.60;99.90;;;;;;4916147;29;20453;-92
2021/06/10 05:50:45;;;;;;;9.60;8.60;;;19.70;99.90;;;;;;4940306;28;20455;-93
2021/06/10 05:53:12;;;;;;;7.40;6.80;;;20.20;99.90;;;;;;4977273;28;20513;-91
2021/06/10 05:55:38;;;;;;;8.20;7.50;;;20.40;99.90;;;;;;4975537;28;20465;-93
2021/06/10 05:58:06;;;;;;;8.03;7.43;;;20.50;99.90;;;;;;4974080;28;20604;-92
2021/06/10 06:00:33;;;;;;;8.33;7.53;;;21.00;99.90;;;;;;4977674;28;20450;-92
2021/06/10 06:03:02;;;;;;;8.13;7.33;;;21.40;99.90;;;;;;4927943;28;20454;-92
2021/06/10 06:05:29;;;;;;;7.30;6.67;;;21.60;99.90;;;;;;4977654;28;21025;-92
2021/06/10 06:07:56;;;;;;;7.70;7.10;;;21.40;99.90;;;;;;4980825;28;20438;-93
2021/06/10 06:10:22;;;;;;;7.93;7.30;;;21.60;99.90;;;;;;4996856;28;20449;-91
2021/06/10 06:12:51;;;;;;;7.60;6.73;;;;;;;;;;4993274;28;20447;-94
2021/06/10 06:15:19;;;;;;;9.33;6.83;;;21.80;99.90;;;;;;4994292;28;20820;-92
2021/06/10 06:17:47;;;;;;;6.83;6.33;;;21.40;99.90;;;;;;4993046;28;20441;-94
2021/06/10 06:20:14;;;;;;;7.10;6.40;;;21.70;99.90;;;;;;4993952;28;20934;-90
2021/06/10 06:22:42;;;;;;;6.90;6.40;;;21.70;99.90;;;;;;4994699;28;20461;-92
2021/06/10 06:25:09;;;;;;;7.13;6.63;;;21.90;99.90;;;;;;4996949;28;20493;-91
2021/06/10 06:27:36;;;;;;;6.80;6.30;;;22.00;99.90;;;;;;4995573;28;20804;-90
2021/06/10 06:30:05;;;;;;;6.53;6.03;;;22.10;99.90;;;;;;4990972;28;20496;-92
2021/06/10 06:32:33;;;;;;;7.00;6.50;;;22.80;99.90;;;;;;4993170;28;20504;-90
2021/06/10 06:34:59;;;;;;;6.37;5.87;;;22.80;99.90;;;;;;5006352;28;20987;-93
2021/06/10 06:37:26;;;;;;;7.57;6.40;;;23.30;99.90;;;;;;5016930;28;20452;-93
2021/06/10 06:39:53;;;;;;;6.20;5.80;;;;;;;;;;5018229;28;20863;-91
2021/06/10 06:42:19;;;;;;;6.27;5.80;;;23.60;99.90;;;;;;5017085;28;20452;-91
2021/06/10 06:44:45;;;;;;;6.60;6.20;;;23.50;99.90;;;;;;5017684;28;20480;-91
2021/06/10 06:47:12;;;;;;;7.40;5.77;;;23.40;99.90;;;;;;5017017;28;20453;-90
2021/06/10 06:49:40;;;;;;;6.97;6.37;;;23.20;99.90;;;;;;5013565;28;20457;-91
2021/06/10 06:52:07;;;;;;;6.83;6.33;;;22.90;99.90;;;;;;5011841;28;20469;-90
2021/06/10 06:54:33;;;;;;;8.03;7.40;;;22.90;99.90;;;;;;5016328;28;20486;-93
2021/06/10 06:57:00;;;;;;;7.40;6.70;;;23.10;99.90;;;;;;5011153;28;20455;-89
2021/06/10 06:59:26;;;;;;;7.27;6.77;;;23.10;99.90;;;;;;5012855;28;20785;-93
2021/06/10 07:01:53;;;;;;;7.50;6.97;;;23.30;99.90;;;;;;5012266;28;20475;-91
2021/06/10 07:04:19;;;;;;;8.70;7.90;;;;;;;;;;5012840;28;20476;-90
2021/06/10 07:06:47;;;;;;;7.53;6.93;;;23.10;99.90;;;;;;5014514;28;20530;-89
2021/06/10 07:09:16;;;;;;;9.00;8.10;;;23.00;99.90;;;;;;5015125;28;20479;-92
2021/06/10 07:11:42;;;;;;;8.70;8.00;;;23.30;99.90;;;;;;5015416;28;20433;-88
2021/06/10 07:14:09;;;;;;;9.00;8.30;;;23.50;99.90;;;;;;5015385;28;20443;-88
2021/06/10 07:16:36;;;;;;;9.20;8.50;;;24.00;99.90;;;;;;5021943;28;20459;-89
2021/06/10 07:19:02;;;;;;;9.67;8.97;;;;;;;;;;5021813;28;20458;-92
2021/06/10 07:21:41;;;;;;;10.03;9.33;;;24.20;99.90;;;;;;5015802;28;20452;-89
2021/06/10 07:24:12;;;;;;;9.07;8.40;;;24.50;99.90;;;;;;5014378;28;20495;-88
2021/06/10 07:26:38;;;;;;;9.40;8.60;;;24.50;99.90;;;;;;5011333;28;20452;-88
2021/06/10 07:29:06;;;;;;;8.93;8.07;;;24.50;99.90;;;;;;5014521;28;20492;-89
2021/06/10 07:31:33;;;;;;;9.20;8.60;;;;;;;;;;5014611;28;20452;-89
2021/06/10 07:34:02;;;;;;;9.97;9.17;;;24.90;99.90;;;;;;5015169;28;20826;-88
2021/06/10 07:36:28;;;;;;;10.53;9.83;;;24.50;99.90;;;;;;5015245;28;20460;-89
2021/06/10 07:38:55;;;;;;;10.13;9.43;;;;;;;;;;5013062;28;20453;-90
2021/06/10 07:41:23;;;;;;;11.13;10.13;;;24.90;99.90;;;;;;5015242;28;20460;-90
2021/06/10 07:43:49;;;;;;;10.57;9.77;;;24.00;99.90;;;;;;5015487;28;21013;-92
2021/06/10 07:46:16;;;;;;;9.73;9.03;;;;;;;;;;5015856;28;20452;-92
2021/06/10 07:48:43;;;;;;;8.90;8.20;;;25.20;99.90;;;;;;5014956;28;20455;-91
2021/06/10 07:51:09;;;;;;;9.23;8.53;;;;;;;;;;5011411;28;20519;-91
2021/06/10 07:53:37;;;;;;;10.13;9.20;;;25.70;99.90;;;;;;5014534;28;20445;-93
2021/06/10 07:56:04;;;;;;;10.07;9.37;;;25.70;99.90;;;;;;5014281;28;20464;-89
2021/06/10 07:58:33;;;;;;;9.97;9.03;;;26.00;99.90;;;;;;5014074;28;20440;-88
2021/06/10 08:00:59;;;;;;;8.87;8.27;;;;;;;;;;5014112;28;20452;-86
2021/06/10 08:03:26;;;;;;;9.57;8.83;;;25.80;99.90;;;;;;4993719;28;20441;-90
2021/06/10 08:05:55;;;;;;;9.10;8.40;;;25.10;99.90;;;;;;4985729;28;20796;-89
2021/06/10 08:08:23;;;;;;;10.37;9.60;;;25.30;99.90;;;;;;4993037;28;20457;-87
2021/06/10 08:10:50;;;;;;;10.17;9.37;;;25.30;99.90;;;;;;4994857;28;20453;-92
2021/06/10 08:13:21;;;;;;;9.90;9.17;;;25.40;99.90;;;;;;4995270;28;20948;-92
2021/06/10 08:15:50;;;;;;;9.73;8.93;;;25.40;99.90;;;;;;4997191;28;20977;-91
2021/06/10 08:18:17;;;;;;;9.73;9.03;;;25.80;99.90;;;;;;4994986;28;20543;-88
2021/06/10 08:20:43;;;;;;;9.70;8.90;;;26.10;99.90;;;;;;4991022;28;20445;-92
2021/06/10 08:23:10;;;;;;;8.90;8.20;;;25.70;99.90;;;;;;4993296;28;20532;-84
2021/06/10 08:25:42;;;;;;;9.77;8.93;;;25.40;99.90;;;;;;4991113;28;20489;-88
2021/06/10 08:28:09;;;;;;;8.20;7.60;;;25.80;99.90;;;;;;4994504;28;20570;-86
2021/06/10 08:30:36;;;;;;;8.97;8.00;;;26.10;99.90;;;;;;4994107;28;20448;-86
2021/06/10 08:33:05;;;;;;;8.67;7.97;;;26.90;99.90;;;;;;4991071;28;20941;-85
2021/06/10 08:35:31;;;;;;;8.60;8.00;;;26.90;99.90;;;;;;4990494;28;20489;-85
2021/06/10 08:37:58;;;;;;;9.07;8.37;;;26.90;99.90;;;;;;4992573;28;20449;-84
2021/06/10 08:40:25;;;;;;;9.07;8.27;;;26.80;99.90;;;;;;4994208;28;20491;-84
2021/06/10 08:42:51;;;;;;;8.20;7.50;;;26.10;99.90;;;;;;4993749;28;20445;-85
2021/06/10 08:45:20;;;;;;;10.10;9.40;;;26.00;99.90;;;;;;4991309;28;20543;-89
2021/06/10 08:47:49;;;;;;;9.20;8.50;;;26.60;99.90;;;;;;4993993;28;20457;-87
2021/06/10 08:50:22;;;;;;;9.70;8.90;;;26.50;99.90;;;;;;4993118;28;20469;-86
2021/06/10 08:52:49;;;;;;;9.17;8.57;;;26.60;99.80;;;;;;4993384;28;20453;-88
2021/06/10 08:55:15;;;;;;;11.00;10.20;;;26.90;99.90;;;;;;4991379;28;20461;-87
2021/06/10 08:57:42;;;;;;;9.67;8.97;;;;;;;;;;4996009;28;20508;-93
2021/06/10 09:00:09;;;;;;;9.90;9.20;;;27.30;97.20;;;;;;4996959;28;20453;-91
2021/06/10 09:02:35;;;;;;;9.67;8.80;;;27.90;98.30;;;;;;4996201;28;20461;-87
2021/06/10 09:05:04;;;;;;;11.27;10.40;;;27.70;99.70;;;;;;5001934;28;20492;-85
2021/06/10 09:07:51;;;;;;;10.33;9.50;;;28.00;98.50;;;;;;5015677;28;20448;-86
2021/06/10 09:10:22;;;;;;;10.50;9.70;;;27.80;99.90;;;;;;5007460;28;20910;-86
2021/06/10 09:12:50;;;;;;;12.00;11.10;;;;;;;;;;4996745;28;20444;-85
2021/06/10 09:15:17;;;;;;;12.37;11.27;;;27.60;97.90;;;;;;4997648;28;20937;-87
2021/06/10 09:17:44;;;;;;;10.60;9.80;;;27.80;99.90;;;;;;4997350;28;20456;-88
2021/06/10 09:20:45;;;;;;;9.67;8.87;;;28.10;99.60;;;;;;4997122;28;20444;-87
2021/06/10 09:23:27;;;;;;;9.73;9.00;;;27.70;96.70;;;;;;4926015;29;20506;-87
2021/06/10 09:26:00;;;;;;;10.67;9.77;;;27.00;98.90;;;;;;4936783;29;20495;-90
2021/06/10 09:28:31;;;;;;;10.90;9.90;;;26.60;99.90;;;;;;4963325;28;20540;-87
2021/06/10 09:30:58;;;;;;;12.37;11.17;;;26.30;99.90;;;;;;5016426;28;20449;-86
2021/06/10 09:33:37;;;;;;;11.83;10.73;;;25.90;99.90;;;;;;5016048;28;20815;-87
2021/06/10 09:36:04;;;;;;;11.70;10.70;;;25.70;99.90;;;;;;5007622;28;20487;-87
2021/06/10 09:38:32;;;;;;;12.83;11.47;;;26.70;99.90;;;;;;5006026;28;20452;-86
2021/06/10 09:41:03;;;;;;;12.43;11.43;;;27.00;99.90;;;;;;5000477;28;20457;-87
2021/06/10 09:43:41;;;;;;;11.47;10.50;;;26.80;99.90;;;;;;4998971;28;20454;-85
2021/06/10 09:46:08;;;;;;;10.20;9.30;;;26.30;99.90;;;;;;5012895;28;20469;-87
2021/06/10 09:48:34;;;;;;;12.10;11.10;;;26.00;99.90;;;;;;5010664;28;20510;-90
2021/06/10 09:51:01;;;;;;;11.77;10.77;;;25.50;99.90;;;;;;5016118;28;20452;-92
2021/06/10 09:53:29;;;;;;;12.40;11.40;;;25.10;99.90;;;;;;5014780;28;20484;-88
2021/06/10 09:55:58;;;;;;;10.73;10.03;;;25.10;99.90;;;;;;5016005;28;20515;-89
2021/06/10 09:58:27;;;;;;;14.70;10.40;;;24.90;99.90;;;;;;5011677;28;20464;-88
2021/06/10 10:00:59;;;;;;;11.63;10.63;;;24.60;99.90;;;;;;5016232;28;20855;-87
2021/06/10 10:03:40;;;;;;;12.90;11.87;;;23.90;99.90;;;;;;5016024;28;20452;-89
2021/06/10 10:06:15;;;;;;;12.83;11.73;;;23.90;99.90;;;;;;5015958;28;20456;-87
2021/06/10 10:08:42;;;;;;;13.97;12.73;;;23.70;99.90;;;;;;5014394;28;20847;-87
2021/06/10 10:11:11;;;;;;;14.40;13.20;;;23.70;99.90;;;;;;5015518;28;20510;-88
2021/06/10 10:13:39;;;;;;;12.90;11.40;;;23.30;99.90;;;;;;5015371;28;20452;-87
2021/06/10 10:16:06;;;;;;;12.93;11.83;;;22.80;99.90;;;;;;5016126;28;20945;-86
2021/06/10 10:18:33;;;;;;;13.37;12.10;;;22.90;99.90;;;;;;5015636;28;20452;-87
2021/06/10 10:21:00;;;;;;;15.20;14.00;;;22.70;99.90;;;;;;5015706;28;20452;-86
2021/06/10 10:23:27;;;;;;;14.77;13.40;;;22.20;99.90;;;;;;5014372;28;20453;-87
2021/06/10 10:25:58;;;;;;;13.90;12.73;;;22.10;99.90;;;;;;5016416;28;20491;-89
2021/06/10 10:28:27;;;;;;;12.90;11.77;;;22.00;99.90;;;;;;5015890;28;20456;-90
2021/06/10 10:30:54;;;;;;;14.60;13.40;;;21.90;99.90;;;;;;5015248;28;20448;-89
2021/06/10 10:33:24;;;;;;;15.20;11.77;;;21.70;99.90;;;;;;5000393;28;20441;-89
2021/06/10 10:35:52;;;;;;;13.23;11.70;;;21.80;99.90;;;;;;5006752;28;20480;-89
2021/06/10 10:38:21;;;;;;;13.80;12.50;;;21.90;99.90;;;;;;5011265;28;20919;-88
2021/06/10 10:40:59;;;;;;;13.57;12.37;;;22.10;99.90;;;;;;5005710;28;20850;-88
2021/06/10 10:43:28;;;;;;;14.37;13.17;;;22.10;99.90;;;;;;5014959;28;20452;-88
2021/06/10 10:46:20;;;;;;;15.43;14.00;;;22.90;99.90;;;;;;5017553;28;20495;-89
2021/06/10 10:48:48;;;;;;;13.80;12.50;;;23.00;99.90;;;;;;5016791;28;20476;-89
2021/06/10 10:51:26;;;;;;;25.73;15.03;;;24.10;99.90;;;;;;5011065;28;20476;-89
2021/06/10 10:53:56;;;;;;;16.30;14.80;;;24.90;99.90;;;;;;4996884;28;20540;-89
2021/06/10 10:56:35;;;;;;;15.13;13.93;;;25.50;99.90;;;;;;4993629;28;20461;-89
2021/06/10 10:59:15;;;;;;;15.80;14.40;;;26.80;99.90;;;;;;4996841;28;20449;-87
2021/06/10 11:01:42;;;;;;;16.07;14.67;;;27.60;99.90;;;;;;4998566;28;20453;-92
2021/06/10 11:04:29;;;;;;;15.10;13.63;;;27.90;95.90;;;;;;4993442;28;20993;-92
2021/06/10 11:06:56;;;;;;;15.63;14.13;;;;;;;;;;5015234;28;20456;-93
2021/06/10 11:09:42;;;;;;;14.30;13.30;;;28.00;99.90;;;;;;5020637;28;20448;-92
2021/06/10 11:12:11;;;;;;;18.50;17.00;;;;;;;;;;5020185;28;20436;-90
2021/06/10 11:14:52;;;;;;;15.00;13.80;;;26.80;99.90;;;;;;5020295;28;20452;-90
2021/06/10 11:17:21;;;;;;;13.50;12.50;;;26.20;99.90;;;;;;5020428;28;20529;-91
2021/06/10 11:19:52;;;;;;;14.67;13.47;;;25.70;99.90;;;;;;5019965;28;20453;-87
2021/06/10 11:22:55;;;;;;;15.47;14.27;;;25.30;99.90;;;;;;5016201;28;20448;-89
2021/06/10 11:25:40;;;;;;;14.50;13.30;;;24.70;99.90;;;;;;4999488;28;20494;-86
2021/06/10 11:28:08;;;;;;;13.90;12.87;;;24.40;99.90;;;;;;5020067;28;20868;-91
2021/06/10 11:30:39;;;;;;;15.20;13.90;;;24.60;99.90;;;;;;5021942;28;20460;-89
2021/06/10 11:33:08;;;;;;;14.90;13.60;;;24.50;99.90;;;;;;5020141;28;20603;-92
2021/06/10 11:35:40;;;;;;;15.40;14.20;;;24.30;99.90;;;;;;5017606;28;20488;-87
2021/06/10 11:38:15;;;;;;;15.57;14.13;;;24.50;99.90;;;;;;5016451;28;20444;-88
2021/06/10 11:40:44;;;;;;;15.77;14.57;;;24.50;99.90;;;;;;5017715;28;20456;-87
2021/06/10 11:43:12;;;;;;;16.40;15.00;;;24.20;99.90;;;;;;5012100;28;20441;-88
2021/06/10 11:45:42;;;;;;;15.47;14.20;;;24.50;99.90;;;;;;5019583;28;20550;-86
2021/06/10 11:48:09;;;;;;;16.10;14.50;;;24.50;99.90;;;;;;5013715;28;20535;-88
2021/06/10 11:50:37;;;;;;;15.27;13.97;;;24.00;99.90;;;;;;5017732;28;20454;-91
2021/06/10 11:53:07;;;;;;;16.57;15.17;;;23.90;99.90;;;;;;5017553;28;20548;-89
2021/06/10 11:55:36;;;;;;;15.80;14.50;;;23.90;99.90;;;;;;5018539;28;20503;-87
2021/06/10 11:58:04;;;;;;;15.80;14.30;;;24.10;99.90;;;;;;5019043;28;20498;-89
2021/06/10 12:00:37;;;;;;;15.50;14.20;;;24.40;99.90;;;;;;5020628;28;20444;-84
2021/06/10 12:03:06;;;;;;;15.90;14.50;;;24.20;99.90;;;;;;5018960;28;20440;-87
2021/06/10 12:05:36;;;;;;;16.83;15.33;;;24.00;99.90;;;;;;5019095;28;20835;-88
2021/06/10 12:08:11;;;;;;;17.70;16.20;;;23.50;99.90;;;;;;5015168;28;20452;-89
2021/06/10 12:10:37;;;;;;;16.37;15.00;;;;;;;;;;5015945;28;20448;-88
2021/06/10 12:13:04;;;;;;;17.17;15.87;;;;;;;;;;5013181;28;20523;-90
2021/06/10 12:15:35;;;;;;;17.80;16.40;;;24.90;99.90;;;;;;5016970;28;20432;-91
2021/06/10 12:18:03;;;;;;;17.43;16.00;;;25.20;99.90;;;;;;5015732;28;20464;-91
2021/06/10 12:20:32;;;;;;;17.00;15.60;;;25.90;99.90;;;;;;5020243;28;20451;-88
2021/06/10 12:22:59;;;;;;;15.87;14.47;;;;;;;;;;5015257;28;20461;-86
2021/06/10 12:25:27;;;;;;;15.23;13.93;;;26.30;98.00;;;;;;5014968;28;21114;-91
2021/06/10 12:27:54;;;;;;;15.67;14.40;;;;;;;;;;5016685;28;20519;-89
2021/06/10 12:30:33;;;;;;;15.23;13.73;;;25.50;99.90;;;;;;5016009;28;20444;-90
2021/06/10 12:33:15;;;;;;;15.13;13.73;;;26.20;99.90;;;;;;5020087;28;20456;-90
2021/06/10 12:36:22;;;;;;;13.50;12.50;;;27.30;99.90;;;;;;4974437;28;20484;-90
2021/06/10 12:38:54;;;;;;;13.23;12.27;;;27.80;95.90;;;;;;5004150;28;20532;-90
2021/06/10 12:41:54;;;;;;;13.30;12.20;;;28.10;97.70;;;;;;5014067;28;20538;-90
2021/06/10 12:47:32;;;;;;;13.90;12.73;;;26.80;99.80;;;;;;5014126;28;20456;-92
2021/06/10 12:50:03;;;;;;;14.00;12.83;;;;;;;;;;5008924;28;20455;-91
2021/06/10 12:52:37;;;;;;;14.00;12.80;;;;;;;;;;5007647;28;20886;-94
2021/06/10 12:55:06;;;;;;;13.27;12.17;;;25.90;99.90;;;;;;5010277;28;20481;-91
2021/06/10 12:57:35;;;;;;;12.67;11.63;;;25.80;98.50;;;;;;5007521;28;20796;-90
2021/06/10 13:00:06;;;;;;;13.77;12.67;;;26.10;99.40;;;;;;5001709;28;20464;-89
2021/06/10 13:02:33;;;;;;;13.73;12.60;;;;;;;;;;4999671;28;20987;-91